createdAt,value
2018-12-23T00:00:25.219Z,3.21
2018-12-23T00:05:30.468Z,2.95
2018-12-23T00:10:34.261Z,3.03
2018-12-23T00:15:38.483Z,3.16
2018-12-23T00:20:42.481Z,3.27
2018-12-23T00:25:46.275Z,3.29
2018-12-23T00:30:50.200Z,3.39
2018-12-23T00:35:54.118Z,3.46
2018-12-23T00:40:58.057Z,3.07
2018-12-23T00:46:01.975Z,2.78
2018-12-23T00:51:06.515Z,2.73
2018-12-23T00:56:12.523Z,2.48
2018-12-23T01:01:16.407Z,2.34
2018-12-23T01:06:20.313Z,2.28
2018-12-23T01:11:24.354Z,2.19
2018-12-23T01:16:28.167Z,2.28
2018-12-23T01:21:32.105Z,2.40
2018-12-23T01:26:36.080Z,2.36
2018-12-23T01:31:40.073Z,2.34
2018-12-23T01:36:43.965Z,2.26
2018-12-23T01:41:47.861Z,2.20
2018-12-23T01:46:51.885Z,2.18
2018-12-23T01:51:55.748Z,2.19
2018-12-23T01:56:59.746Z,2.15
2018-12-23T02:02:03.853Z,2.28
2018-12-23T02:07:08.007Z,2.44
2018-12-23T02:12:12.104Z,2.34
2018-12-23T02:17:16.026Z,2.49
2018-12-23T02:22:19.777Z,2.57
2018-12-23T02:27:23.773Z,2.64
2018-12-23T02:32:27.698Z,2.75
2018-12-23T02:37:32.327Z,2.63
2018-12-23T02:42:36.152Z,2.66
2018-12-23T02:47:40.190Z,2.69
2018-12-23T02:52:44.092Z,2.72
2018-12-23T02:57:48.002Z,2.66
2018-12-23T03:02:51.755Z,2.81
2018-12-23T03:07:55.920Z,2.88
2018-12-23T03:12:59.716Z,2.89
2018-12-23T03:18:03.813Z,2.71
2018-12-23T03:23:08.652Z,2.84
2018-12-23T03:28:12.693Z,2.74
2018-12-23T03:33:16.719Z,2.51
2018-12-23T03:38:20.550Z,2.20
2018-12-23T03:43:24.465Z,2.14
2018-12-23T03:48:28.619Z,2.14
2018-12-23T03:53:32.520Z,2.19
2018-12-23T03:58:36.490Z,2.14
2018-12-23T04:03:40.418Z,2.06
2018-12-23T04:08:44.082Z,1.89
2018-12-23T04:13:47.943Z,1.88
2018-12-23T04:18:52.050Z,1.79
2018-12-23T04:23:56.025Z,1.77
2018-12-23T04:28:59.709Z,1.57
2018-12-23T04:34:03.543Z,1.61
2018-12-23T04:39:07.366Z,1.54
2018-12-23T04:44:11.160Z,1.54
2018-12-23T04:49:15.432Z,1.55
2018-12-23T04:54:19.303Z,2.20
2018-12-23T04:59:23.076Z,2.54
2018-12-23T05:04:26.931Z,2.95
2018-12-23T05:09:31.189Z,2.20
2018-12-23T05:14:34.911Z,1.29
2018-12-23T05:19:39.054Z,0.52
2018-12-23T05:24:44.515Z,0.38
2018-12-23T05:29:48.314Z,0.36
2018-12-23T05:34:52.201Z,0.32
2018-12-23T05:39:55.983Z,0.61
2018-12-23T05:44:59.862Z,1.24
2018-12-23T05:50:03.778Z,1.07
2018-12-23T05:55:07.591Z,1.19
2018-12-23T06:00:11.240Z,1.31
2018-12-23T06:05:14.941Z,4.43
2018-12-23T06:10:21.067Z,2.17
2018-12-23T06:15:24.746Z,3.61
2018-12-23T06:20:28.755Z,2.77
2018-12-23T06:25:32.490Z,2.02
2018-12-23T06:30:36.263Z,1.99
2018-12-23T06:35:40.063Z,2.00
2018-12-23T06:40:44.007Z,1.97
2018-12-23T06:45:47.776Z,1.56
2018-12-23T06:50:51.647Z,1.95
2018-12-23T06:55:55.459Z,2.85
2018-12-23T07:00:59.242Z,3.81
2018-12-23T07:06:04.811Z,7.28
2018-12-23T07:11:08.544Z,9.08
2018-12-23T07:16:12.462Z,9.61
2018-12-23T07:21:16.809Z,10.13
2018-12-23T07:26:20.563Z,10.38
2018-12-23T07:31:24.365Z,10.45
2018-12-23T07:36:28.239Z,10.80
2018-12-23T07:41:31.934Z,11.17
2018-12-23T07:46:35.969Z,11.18
2018-12-23T07:51:39.917Z,11.77
2018-12-23T07:56:43.643Z,11.72
2018-12-23T08:01:47.342Z,11.93
2018-12-23T08:06:51.663Z,11.78
2018-12-23T08:11:56.867Z,11.66
2018-12-23T08:17:00.764Z,11.98
2018-12-23T08:22:04.701Z,12.05
2018-12-23T08:27:12.055Z,12.20
2018-12-23T08:32:17.325Z,12.17
2018-12-23T08:37:23.253Z,12.10
2018-12-23T08:42:27.127Z,12.11
2018-12-23T08:47:30.961Z,12.14
2018-12-23T08:52:34.922Z,12.02
2018-12-23T08:57:38.897Z,12.02
2018-12-23T09:02:42.660Z,12.01
2018-12-23T09:07:53.042Z,12.13
2018-12-23T09:12:55.001Z,12.02
2018-12-23T09:18:02.219Z,11.96
2018-12-23T09:23:07.001Z,12.00
2018-12-23T09:28:10.946Z,12.00
2018-12-23T09:33:14.716Z,11.95
2018-12-23T09:38:18.397Z,12.08
2018-12-23T09:43:22.023Z,12.12
2018-12-23T09:48:25.732Z,12.14
2018-12-23T09:53:29.569Z,12.26
2018-12-23T09:58:33.360Z,12.29
2018-12-23T10:03:37.094Z,12.28
2018-12-23T10:08:43.571Z,12.35
2018-12-23T10:13:48.354Z,12.40
2018-12-23T10:18:52.237Z,12.26
2018-12-23T10:23:58.441Z,12.43
2018-12-23T10:29:02.226Z,12.68
2018-12-23T10:34:05.973Z,12.68
2018-12-23T10:39:10.610Z,12.76
2018-12-23T10:44:14.403Z,12.57
2018-12-23T10:49:18.245Z,12.59
2018-12-23T10:54:22.269Z,12.70
2018-12-23T10:59:26.597Z,12.67
2018-12-23T11:04:30.570Z,12.56
2018-12-23T11:09:34.419Z,12.71
2018-12-23T11:14:38.587Z,12.71
2018-12-23T11:19:42.895Z,12.76
2018-12-23T11:24:47.114Z,12.76
2018-12-23T11:29:51.842Z,12.79
2018-12-23T11:34:56.877Z,12.80
2018-12-23T11:40:01.148Z,12.81
2018-12-23T11:45:06.353Z,12.63
2018-12-23T11:50:23.102Z,12.59
2018-12-23T11:55:27.533Z,12.59
2018-12-23T12:00:32.858Z,12.59
2018-12-23T12:05:37.483Z,12.48
2018-12-23T12:10:41.903Z,12.35
2018-12-23T12:15:46.239Z,12.08
2018-12-23T12:20:50.431Z,12.09
2018-12-23T12:25:55.362Z,12.03
2018-12-23T12:30:59.772Z,12.00
2018-12-23T12:36:04.419Z,12.04
2018-12-23T12:41:09.260Z,11.98
2018-12-23T12:46:13.230Z,11.89
2018-12-23T12:51:18.491Z,11.77
2018-12-23T12:56:22.979Z,11.72
2018-12-23T13:01:28.266Z,11.75
2018-12-23T13:06:33.017Z,11.69
2018-12-23T13:11:38.197Z,11.62
2018-12-23T13:16:42.207Z,11.61
2018-12-23T13:21:46.412Z,11.56
2018-12-23T13:26:50.580Z,11.48
2018-12-23T13:31:54.335Z,11.42
2018-12-23T13:36:58.009Z,11.27
2018-12-23T13:43:19.726Z,11.24
2018-12-23T13:48:51.059Z,11.17
2018-12-23T13:54:06.252Z,11.08
2018-12-23T13:59:21.922Z,11.03
2018-12-23T14:04:40.161Z,10.89
2018-12-23T14:10:36.533Z,10.84
2018-12-23T14:15:40.380Z,10.78
2018-12-23T14:20:44.406Z,10.79
2018-12-23T14:25:48.971Z,10.67
2018-12-23T14:30:52.870Z,10.64
2018-12-23T14:35:56.653Z,10.58
2018-12-23T14:41:00.341Z,10.55
2018-12-23T14:46:04.040Z,10.48
2018-12-23T14:51:07.826Z,10.50
2018-12-23T14:56:11.659Z,10.45
2018-12-23T15:01:15.571Z,10.38
2018-12-23T15:06:19.404Z,10.34
2018-12-23T15:11:24.762Z,10.28
2018-12-23T15:16:28.837Z,10.22
2018-12-23T15:21:32.658Z,10.21
2018-12-23T15:26:36.538Z,10.27
2018-12-23T15:31:40.391Z,10.22
2018-12-23T15:36:44.176Z,10.11
2018-12-23T15:41:48.258Z,10.04
2018-12-23T15:46:52.082Z,10.10
2018-12-23T15:51:55.931Z,10.22
2018-12-23T15:56:59.687Z,10.28
2018-12-23T16:02:04.153Z,10.28
2018-12-23T16:07:08.116Z,10.29
2018-12-23T16:12:11.836Z,10.24
2018-12-23T16:17:16.223Z,10.19
2018-12-23T16:22:20.010Z,10.21
2018-12-23T16:27:24.005Z,10.10
2018-12-23T16:32:27.844Z,9.88
2018-12-23T16:37:32.656Z,10.00
2018-12-23T16:42:36.350Z,10.06
2018-12-23T16:47:40.623Z,9.89
2018-12-23T16:52:45.509Z,9.96
2018-12-23T16:57:49.256Z,9.97
2018-12-23T17:02:53.285Z,9.98
2018-12-23T17:07:57.042Z,9.98
2018-12-23T17:13:01.004Z,9.96
2018-12-23T17:18:05.038Z,10.00
2018-12-23T17:23:08.952Z,9.95
2018-12-23T17:28:12.779Z,9.96
2018-12-23T17:33:16.759Z,9.91
2018-12-23T17:38:20.576Z,9.89
2018-12-23T17:43:24.803Z,9.94
2018-12-23T17:48:28.677Z,9.84
2018-12-23T17:53:32.647Z,9.76
2018-12-23T17:58:36.404Z,9.57
2018-12-23T18:03:40.255Z,9.55
2018-12-23T18:08:43.974Z,9.23
2018-12-23T18:13:47.814Z,9.20
2018-12-23T18:18:51.792Z,8.99
2018-12-23T18:23:55.602Z,8.74
2018-12-23T18:28:59.422Z,8.71
2018-12-23T18:34:03.336Z,8.70
2018-12-23T18:39:07.457Z,8.88
2018-12-23T18:44:12.073Z,8.89
2018-12-23T18:49:15.935Z,9.09
2018-12-23T18:54:20.053Z,9.10
2018-12-23T18:59:24.273Z,9.06
2018-12-23T19:04:28.277Z,8.96
2018-12-23T19:10:42.269Z,9.00
2018-12-23T19:16:31.890Z,9.02
2018-12-23T19:22:18.664Z,9.01
2018-12-23T19:27:59.669Z,9.12
2018-12-23T19:33:21.127Z,9.16
2018-12-23T19:38:51.474Z,9.13
2018-12-23T19:44:22.108Z,9.03
2018-12-23T19:49:51.234Z,8.96
2018-12-23T19:55:26.474Z,8.98
2018-12-23T20:01:03.099Z,8.96
2018-12-23T20:06:44.066Z,8.98
2018-12-23T20:12:20.129Z,8.91
2018-12-23T20:18:08.893Z,9.04
2018-12-23T20:23:48.666Z,8.92
2018-12-23T20:29:18.184Z,8.85
2018-12-23T20:34:52.302Z,8.70
2018-12-23T20:41:07.970Z,8.84
2018-12-23T20:46:36.343Z,8.93
2018-12-23T20:52:23.233Z,8.94
2018-12-23T20:57:51.838Z,8.80
2018-12-23T21:03:45.942Z,8.71
2018-12-23T21:09:28.209Z,8.81
2018-12-23T21:15:15.234Z,8.78
2018-12-23T21:21:09.778Z,8.88
2018-12-23T21:26:53.583Z,8.87
2018-12-23T21:32:17.767Z,8.77
2018-12-23T21:37:36.824Z,8.69
2018-12-23T21:43:34.072Z,8.77
2018-12-23T21:49:28.170Z,8.61
2018-12-23T21:55:13.762Z,8.22
2018-12-23T22:00:40.533Z,8.19
2018-12-23T22:06:32.760Z,7.76
2018-12-23T22:12:20.875Z,7.48
2018-12-23T22:17:24.449Z,7.49
2018-12-23T22:22:27.994Z,7.36
2018-12-23T22:27:38.029Z,7.10
2018-12-23T22:32:42.646Z,6.99
2018-12-23T22:37:46.327Z,6.80
2018-12-23T22:42:49.882Z,6.53
2018-12-23T22:47:53.688Z,6.35
2018-12-23T22:52:57.452Z,6.24
2018-12-23T22:58:00.866Z,6.20
2018-12-23T23:03:09.285Z,6.28
2018-12-23T23:08:12.780Z,6.14
2018-12-23T23:13:18.672Z,5.89
2018-12-23T23:18:21.811Z,5.70
2018-12-23T23:23:25.234Z,5.56
2018-12-23T23:28:28.918Z,5.37
2018-12-23T23:33:33.150Z,5.25
2018-12-23T23:38:38.166Z,5.11
2018-12-23T23:43:41.630Z,5.01
2018-12-23T23:48:45.179Z,5.18
2018-12-23T23:53:48.716Z,5.06
2018-12-23T23:58:52.248Z,4.94
